Mark Aaronson

Chief Scout - New York Red Bulls
20 Feb 2028
Sunday
Process

Personality

Adaptability (1) Ambition (8) Controversy (5) Loyalty (18) Pressure (11) Professionalism (13) Sportsmanship (10) Temperament (12)

Profile

Coaching Style Democratic
License Continental B
Determination 9
Man Management 12
Motivating 6
Discipline 10
Job Satisfaction
100%
Fatigue
0%
Role Chief Scout
Wage 77.1K p/w
Contract 14.03.2028

Performance

Behaviour Good
Training Effectiveness
44%
Player Development
25%
Injury Prevention
65%
Tactical Implementation
55%

Recent Events

Recommended a transfer target now
Recommended a transfer target now
Presented a dossier to the board now
Contract negotiation started now
Contract negotiation started now
Assessed a player now
Contract negotiation started now
Contract negotiation started now

Currently Monitoring

346
Player Club Status Ability Confidence Watched Last Observed Latest Vote
Fábio Carvalho Sheffield Wednesday Active 149 / 144 40% 3 19.02.2028 -
Dwight McNeil Crystal Palace Active 144 / 136 40% 1 19.02.2028 -
William Osula Wrexham Active 133 / 127 40% 1 19.02.2028 -
Jorrel Hato Chelsea Active 148 / 149 40% 1 16.02.2028 -
Jorthy Mokio ADO Den Haag Active 127 / 138 40% 1 16.02.2028 -
Ronan Kpakio Cardiff City Active 120 / 131 40% 1 16.02.2028 -
Luiz Henrique Club America Negotiating 144 / 149 80% 1 14.02.2028 Approve
Gonzalo Fulham Active 147 / 159 40% 2 13.02.2028 -
Zeki Amdouni Burnley Active 136 / 136 40% 2 13.02.2028 -
Callum O'Hare Sheffield United Active 140 / 137 40% 3 12.02.2028 -
Brenden Aaronson Leeds United Active 150 / 147 40% 2 12.02.2028 -
Williams Manyama SuperSport United Active 125 / 115 40% 4 11.02.2028 -
Léo Scienza Southampton Active 142 / 135 40% 6 11.02.2028 -
Sam Bell Bristol City Active 128 / 125 40% 1 11.02.2028 -
Jaden Philogene Coventry City Active 147 / 153 40% 4 09.02.2028 -
Mfundo Vilakazi Kaizer Chiefs Active 117 / 132 40% 2 09.02.2028 -
Gopolang Taunyane CR Belouizdad Active 105 / 119 40% 2 08.02.2028 -
Loum Tchaouna Bolton Wanderers Active 144 / 148 40% 2 08.02.2028 -
Siyanda Ndlovu Bloemfontein Celtic Active 117 / 117 40% 1 08.02.2028 -
Pierre Dwomoh Watford Active 127 / 120 40% 1 08.02.2028 -
Rivaldo Grobler Free State Stars Active 108 / 99 40% 1 08.02.2028 -
David Atiemo Liberty Professionals Active 78 / 95 40% 1 08.02.2028 -
Marcelo Allende Mamelodi Sundowns Active 137 / 119 40% 8 05.02.2028 -
Amine Adli Bournemouth Active 153 / 143 40% 3 05.02.2028 -
Anton Stach Leeds United Active 156 / 150 40% 2 05.02.2028 -
Manuel Ugarte Portsmouth Active 152 / 154 40% 1 02.02.2028 -
Tadeo Allende Inter Miami CF Active 126 / 135 40% 2 30.01.2028 -
Tyrese Campbell Sheffield United Active 138 / 139 40% 3 30.01.2028 -
Ryan Sessegnon Fulham Active 150 / 145 40% 2 30.01.2028 -
Patrick Roberts Birmingham Active 130 / 124 40% 1 29.01.2028 -
Majeed Ashimeru CSKA Moscow Active 126 / 136 40% 1 29.01.2028 -
Adam Wharton Crystal Palace Active 155 / 168 40% 4 28.01.2028 -
Luciano Boggio Nacional Active 124 / 125 40% 4 28.01.2028 -
Nkosingiphile Ngcobo Kaizer Chiefs Active 126 / 121 40% 1 28.01.2028 -
Million Manhoef Stoke City Active 133 / 140 40% 1 27.01.2028 -
Tiago Palacios Estudiantes Active 135 / 127 40% 1 27.01.2028 -
Timo Werner San Jose Earthquakes Active 128 / 139 40% 3 26.01.2028 -
Patrick Maswanganyi Orlando Pirates Active 116 / 130 40% 3 26.01.2028 -
Abdoul Ouattara Burton Albion Active 136 / 128 40% 2 25.01.2028 -
Largie Ramazani Leeds United Active 149 / 138 40% 1 24.01.2028 -
Quinn Sullivan Philadelphia Union Active 129 / 126 40% 1 24.01.2028 -
Ez Abde Girona Active 160 / 153 40% 1 20.01.2028 -
Sebastián Medina Tigre Active 119 / 115 40% 1 20.01.2028 -
Gabriel Pirani San Diego Football Club Active 138 / 138 40% 1 20.01.2028 -
Gastón Moreyra Almirante Brown Active 122 / 108 40% 1 18.01.2028 -
Nathan Ordaz Metalist Active 127 / 112 40% 1 18.01.2028 -
Tshepang Moremi Orlando Pirates Active 123 / 123 40% 4 17.01.2028 -
Gabriel Gudmundsson Leeds United Active 147 / 142 40% 2 16.01.2028 -
Emmanuel Sabbi Vancouver Whitecaps Active 120 / 130 40% 1 16.01.2028 -
Herman Johansson FC Dallas Active 132 / 117 40% 1 16.01.2028 -
Giorgi Arabidze Torpedo Kutaisi Active 113 / 124 40% 2 14.01.2028 -
Papa Amadou Diallo Plymouth Argyle Active 132 / 137 40% 2 13.01.2028 -
Agustín Anello Philadelphia Union Active 132 / 117 40% 1 13.01.2028 -
Harry Wilson Leeds United Active 147 / 151 40% 1 13.01.2028 -
Brian Orosco Godoy Cruz Active 121 / 118 40% 1 11.01.2028 -
Marquinhos Spartak Moscow Active 137 / 143 40% 10 10.01.2028 -
Lewis Morgan SuperSport United Active 131 / 128 40% 10 10.01.2028 -
Nicolás Domínguez Huddersfield Town Active 152 / 154 40% 1 10.01.2028 -
Hwang Hee-Chan Wolverhampton Active 140 / 136 40% 3 09.01.2028 -
Kobbie Mainoo Leicester City Active 159 / 163 40% 1 09.01.2028 -
Alejo Cruz Juventud Active 120 / 114 40% 2 07.01.2028 -
Juan Sebastián Herrera Deportivo La Guaira Active 119 / 110 40% 1 07.01.2028 -
Thierno Barry Norwich City Active 147 / 151 40% 1 04.01.2028 -
Oswin Appollis Orlando Pirates Active 120 / 123 40% 7 03.01.2028 -
Noahkai Banks Hamburger SV Active 140 / 148 40% 1 03.01.2028 -
Giovanni Leoni Bradford City Active 137 / 138 40% 1 03.01.2028 -
Jofre Torrents Ajax Active 135 / 143 40% 1 03.01.2028 -
Ayden Heaven Luton Town Active 142 / 151 40% 2 02.01.2028 -
Owen Foye Swindon Town Active 85 / 97 40% 1 02.01.2028 -
Josh King Chelsea Active 148 / 148 40% 1 01.01.2028 -
Edwin Asamoah Berekum Chelsea Active 95 / 103 40% 1 01.01.2028 -
Joe Johnson Barnet Active 102 / 116 40% 1 01.01.2028 -
Vicente Poggi Godoy Cruz Active 123 / 131 40% 4 11.12.2027 -
Emanuel Coronel Rosario Central Active 133 / 130 40% 2 11.12.2027 -
Sergi Palencia Los Angeles Football Club Active 121 / 131 40% 4 10.12.2027 -
Ralph Orquin Seattle Sounders Active 130 / 115 40% 3 10.12.2027 -
Christos Mouzakitis Hull City Active 140 / 150 40% 1 10.12.2027 -
Jeremiah Berkeley-Agyepong Gzira United Active 81 / 78 40% 1 10.12.2027 -
Hassani Dotson Seattle Sounders Active 127 / 134 40% 1 10.12.2027 -
Gonzalo Mottes Chacarita Juniors Active 114 / 110 40% 4 09.12.2027 -
Julián Cosi Madryn Active 109 / 112 40% 3 09.12.2027 -
Josh Nichols Tranmere Rovers Active 121 / 121 40% 2 08.12.2027 -
Dmitry Pestryakov Dinamo Moscow Active 120 / 107 40% 1 08.12.2027 -
Dayann Methalie Aston Villa Active 133 / 150 40% 1 08.12.2027 -
Martín García Atlanta Active 108 / 118 40% 3 06.12.2027 -
Mauricio Amaro Atlanta United FC Active 127 / 136 40% 6 06.12.2027 -
Igor Jesus Los Angeles Football Club Active 118 / 122 40% 3 06.12.2027 -
Nicolás Tripichio San Lorenzo Active 123 / 122 40% 2 03.12.2027 -
Alejandro Molina Tristán Suárez Active 111 / 115 40% 1 03.12.2027 -
Cole Bassett Portland Timbers Active 123 / 116 40% 2 02.12.2027 -
Juan Infante Atlético Tucumán Active 125 / 109 40% 3 02.12.2027 -
Joseph Rosales Austin FC Active 116 / 111 40% 3 01.12.2027 -
Ranko Veselinović Vancouver Whitecaps Active 120 / 124 40% 1 01.12.2027 -
Shaq Moore FC Dallas Active 123 / 124 40% 4 30.11.2027 -
Facundo Ardiles Estudiantes Active 109 / 112 40% 4 30.11.2027 -
Philippe Ndinga Philadelphia Union Active 119 / 122 40% 4 30.11.2027 -
Nicolás Paz San Martín SJ Active 121 / 128 40% 5 29.11.2027 -
Delvin Alfonzo Deportivo Tachira Active 124 / 115 40% 2 29.11.2027 -
Martín Garay Tigre Active 121 / 127 40% 2 28.11.2027 -
César Ibáñez Huracán Active 130 / 132 40% 1 27.11.2027 -
Jean Pierre Rosso Liverpool Montevideo Active 115 / 113 40% 1 27.11.2027 -
Tomás Rojas Atlanta Active 109 / 117 40% 3 26.11.2027 -
Brooke Norton-Cuffy Inter Miami CF Active 145 / 142 40% 3 26.11.2027 -
Nazareno Colombo Racing Club Active 131 / 131 40% 2 25.11.2027 -
Roméo Lavia Blackburn Rovers Active 157 / 147 40% 1 24.11.2027 -
Eddie Segura Los Angeles Football Club Active 119 / 126 40% 2 20.11.2027 -
Fernando Bersano Madryn Active 112 / 111 40% 3 18.11.2027 -
Sasha Marcich Lanús Active 126 / 114 40% 3 18.11.2027 -
Brian Calderara Chacarita Juniors Active 117 / 108 40% 3 16.11.2027 -
Reggie Cannon Colorado Rapids Active 125 / 120 40% 2 16.11.2027 -
Bryan Ramírez FC Cincinnati Active 130 / 137 40% 3 15.11.2027 -
Santiago López García Banfield Active 120 / 121 40% 3 12.11.2027 -
Facundo Nadalín San Martín SJ Active 114 / 117 40% 4 12.11.2027 -
Thomas Ortega Quilmes Active 113 / 116 40% 2 10.11.2027 -
Mbekezeli Mbokazi Chicago Fire Active 124 / 129 40% 2 08.11.2027 -
Facundo Mater Barracas Central Active 126 / 110 40% 3 07.11.2027 -
Francisco Maidana Gimnasia y Esgrima Active 108 / 121 40% 1 06.11.2027 -
Lukas Engel Real Salt Lake Active 119 / 115 40% 2 05.11.2027 -
David Ayala Inter Miami CF Active 123 / 116 40% 2 05.11.2027 -
Samuel Gidi FC Cincinnati Active 120 / 121 40% 1 03.11.2027 -
Lucas Carrizo Newell's Old Boys Active 127 / 120 40% 2 02.11.2027 -
Hernán de la Fuente Instituto Active 127 / 127 40% 1 01.11.2027 -
Franco Ibarra Rosario Central Active 133 / 131 40% 1 29.10.2027 -
Walter Juárez Güemes Active 119 / 101 40% 1 28.10.2027 -
Agustín Pereira Albion Active 117 / 119 40% 2 27.10.2027 -
Lucas Souto Defensa y Justicia Active 123 / 132 40% 1 26.10.2027 -
Tomás Jacob Atlanta United FC Active 120 / 129 40% 3 21.10.2027 -
Jayden Danns Wigan Athletic Active 132 / 145 40% 2 20.10.2027 -
Ho-yeon Jung Minnesota United FC Active 131 / 113 40% 1 20.10.2027 -
Tomás Aranda Boca Juniors Active 107 / 127 40% 1 20.10.2027 -
Luca Williams-Barnett Tranmere Rovers Active 121 / 129 40% 1 20.10.2027 -
Alex Amaefula Kun Khalifat Active 85 / 102 40% 4 19.10.2027 -
Alfie James Ventforet Kofu Active 87 / 84 40% 2 19.10.2027 -
Archie Gray Derby County Active 151 / 162 40% 2 18.10.2027 -
Ethan Williams Peterborough United Active 117 / 118 40% 1 18.10.2027 -
Stijn Spierings Real Salt Lake Active 128 / 116 40% 2 15.10.2027 -
Gonzalo Abrego Godoy Cruz Active 119 / 117 40% 1 15.10.2027 -
Babis Kostoulas Brighton Active 140 / 150 40% 1 15.10.2027 -
Caleb Yirenkyi Coventry City Active 144 / 142 40% 1 15.10.2027 -
Facundo Mura Inter Miami CF Active 129 / 133 40% 2 13.10.2027 -
Sergio Reguilón Inter Miami CF Active 140 / 134 40% 2 13.10.2027 -
Malick Yalcouyé Brighton Active 127 / 130 40% 1 13.10.2027 -
Musa Malik Ikorodu City Active 90 / 91 40% 1 13.10.2027 -
Andrew Gutman Chicago Fire Active 124 / 112 40% 1 11.10.2027 -
Steven Alzate Atlanta United FC Active 134 / 127 40% 3 08.10.2027 -
Chinedu Nwosu Bendel Insurance Active 79 / 90 40% 2 08.10.2027 -
Ryan Kavuma-McQueen Accrington Stanley Active 119 / 120 40% 1 08.10.2027 -
Esteban de Lima Tacuarembo Active 95 / 91 40% 1 08.10.2027 -
Aaron Herrera Charlotte Football Club Active 129 / 125 40% 2 06.10.2027 -
Lucas Sanabria LA Galaxy Active 138 / 132 40% 2 05.10.2027 -
Nicolás Garayalde Liverpool Montevideo Active 122 / 123 40% 1 04.10.2027 -
Chimobi Igwilo Rangers International Active 97 / 97 40% 1 04.10.2027 -
Chaka Coulibaly Remo Stars Active 82 / 99 40% 2 03.10.2027 -
Nicolás Romero Minnesota United FC Active 131 / 137 40% 1 01.10.2027 -
Agustín Benítez Defensores Active 112 / 107 40% 2 30.09.2027 -
Abel Bustos Racing Active 119 / 113 40% 3 30.09.2027 -
Mateo Peralta Danubio Active 109 / 120 40% 2 29.09.2027 -
Malte Amundsen Columbus Crew Active 120 / 112 40% 1 29.09.2027 -
Lucas Agazzi Defensor Sporting Active 124 / 135 40% 1 29.09.2027 -
Juan Camilo Pérez Carabobo Active 115 / 106 40% 2 28.09.2027 -
Lucas Camejo River Plate Active 85 / 86 40% 1 24.09.2027 -
Emiliano Álvarez Progreso Active 122 / 125 40% 2 23.09.2027 -
Leandro Lozano Boca Juniors Active 125 / 131 40% 1 23.09.2027 -
Nelson Palacio Toronto FC Active 114 / 120 40% 1 20.09.2027 -
Ezekiah Omuri Shabana Active 83 / 81 40% 1 20.09.2027 -
Obinna Nwobodo FC Cincinnati Active 125 / 124 40% 1 17.09.2027 -
Franco Pizzichillo Montevideo City Torque Active 118 / 120 40% 1 16.09.2027 -
Ezequiel Neira Carabobo Active 121 / 113 40% 1 15.09.2027 -
Mads Bomholt Stabaek Active 107 / 111 40% 1 14.09.2027 -
Mustapha Umar Kano Pillars Active 80 / 82 40% 1 14.09.2027 -
Maren Kefas Plateau United Active 85 / 84 40% 1 12.09.2027 -
Mateo Silvetti Los Angeles Football Club Active 123 / 131 40% 1 11.09.2027 -
Estêvão Millwall Active 144 / 160 40% 1 11.09.2027 -
Jan Bürger Gillingham Active 118 / 115 40% 1 19.07.2027 -
Ibrahim Sabiu Bendel Insurance Active 90 / 104 40% 1 19.07.2027 -
Zach Hemming Chesterfield Active 116 / 105 40% 5 04.07.2027 -
Radek Vítek Middlesbrough Active 141 / 152 40% 5 04.07.2027 -
Francesco D'Alterio Ternana Active 114 / 116 40% 1 04.07.2027 -
Wladimiro Falcone Lecce Active 137 / 150 40% 6 03.07.2027 -
Nicolas Schmid Portsmouth Active 130 / 125 40% 7 02.07.2027 -
Corey Addai Stockport County Active 114 / 112 40% 1 02.07.2027 -
Max O'Leary West Bromwich Albion Active 127 / 133 40% 10 30.06.2027 -
Grégoire Coudert Burnley Active 128 / 137 40% 10 30.06.2027 -
Egil Selvik Watford Active 131 / 125 40% 11 30.06.2027 -
Joel Pereira Reading Active 118 / 118 40% 12 29.06.2027 -
Dean Henderson Crystal Palace Active 157 / 148 40% 8 29.06.2027 -
Balázs Tóth Blackburn Rovers Active 126 / 130 40% 5 29.06.2027 -
Jonathan Klinsmann Cesena Active 128 / 137 40% 2 28.06.2027 -
Daniel Kyerewaa Reading Active 121 / 124 40% 1 28.06.2027 -
Cian Ashford Cardiff City Active 122 / 132 40% 1 28.06.2027 -
David Brooks Bournemouth Active 146 / 140 40% 1 28.06.2027 -
Gianluca Saro Foggia Active 116 / 112 40% 3 27.06.2027 -
Bradley Mabunda SuperSport United Active 121 / 129 40% 2 26.06.2027 -
Christian Walton Ipswich Town Active 129 / 125 40% 12 26.06.2027 -
Alfie Whiteman Newport County Active 110 / 101 40% 2 24.06.2027 -
Matteo Rizzo Cosenza Active 110 / 116 40% 1 24.06.2027 -
Will Dennis Milton Keynes Dons Active 111 / 114 40% 2 22.06.2027 -
Othmane Maamma Watford Active 125 / 139 40% 2 21.06.2027 -
Welington Southampton Active 135 / 134 40% 1 21.06.2027 -
Kasey McAteer Ipswich Town Active 137 / 127 40% 1 21.06.2027 -
George Wickens Lincoln City Active 124 / 115 40% 8 19.06.2027 -
Caoimhin Kelleher Brentford Active 157 / 148 40% 8 17.06.2027 -
Joe Gelhardt Hull City Active 136 / 139 40% 1 17.06.2027 -
Robin Roefs Sunderland Active 147 / 152 40% 4 15.06.2027 -
Alex Lowry Wycombe Wanderers Active 114 / 116 40% 1 15.06.2027 -
Ronald Swansea City Active 130 / 130 40% 1 15.06.2027 -
Vladan Kovačević Norwich City Active 123 / 115 40% 3 13.06.2027 -
Joe Lumley Sheffield Wednesday Active 116 / 113 40% 6 09.06.2027 -
Michele Cerofolini Bari Active 131 / 127 40% 2 09.06.2027 -
Arijanet Murić Sassuolo Active 141 / 147 40% 5 08.06.2027 -
Mohamed Belloumi Hull City Active 143 / 141 40% 1 07.06.2027 -
Ryoya Morishita Blackburn Rovers Active 127 / 130 40% 2 04.06.2027 -
Kwame Poku Queens Park Rangers Active 121 / 120 40% 2 04.06.2027 -
Jack McGlynn Stoke City Active 134 / 128 40% 1 04.06.2027 -
Sergio Barlocco Trento Active 111 / 118 40% 1 02.06.2027 -
Murphy Cooper Plymouth Argyle Active 120 / 125 40% 5 31.05.2027 -
Samuele Perisan Audace Cerignola Active 118 / 121 40% 2 31.05.2027 -
Riccardo Gagno Vicenza Active 125 / 116 40% 6 30.05.2027 -
Zeidane Inoussa Swansea City Active 127 / 123 40% 1 30.05.2027 -
Abdul Fatawu Leicester City Active 137 / 141 40% 1 30.05.2027 -
Derensili Sanches Fernandes Huddersfield Town Active 128 / 116 40% 3 29.05.2027 -
Harry Clarke Preston Active 128 / 136 40% 1 29.05.2027 -
Michael Cooper Sheffield United Active 131 / 128 40% 12 26.05.2027 -
Daniel Iversen Preston Active 125 / 135 40% 4 25.05.2027 -
Jason Knight Bristol City Active 133 / 121 40% 4 24.05.2027 -
Ross McCrorie Bristol City Active 130 / 132 40% 1 24.05.2027 -
Maduka Okoye Udinese Active 137 / 134 40% 1 16.05.2027 -
Lukas Jensen Millwall Active 120 / 126 40% 5 15.05.2027 -
Sorba Thomas Stoke City Active 130 / 133 40% 2 13.05.2027 -
Finn Azaz Southampton Active 131 / 136 40% 2 12.05.2027 -
Carlos Vicente Birmingham Active 147 / 148 40% 2 12.05.2027 -
Filip Marschall Stevenage Active 113 / 123 40% 8 08.05.2027 -
Tommaso Nobile Renate Active 113 / 113 40% 1 03.05.2027 -
Saša Lukić Ipswich Town Active 145 / 131 40% 2 29.04.2027 -
Tomáš Rigo Stoke City Active 133 / 127 40% 1 29.04.2027 -
Toby Collyer West Bromwich Albion Active 132 / 141 40% 1 25.04.2027 -
Jack Diamond Stockport County Active 114 / 121 40% 1 25.04.2027 -
James Trafford Leeds United Active 143 / 148 40% 8 19.04.2027 -
Bosun Lawal Stoke City Active 124 / 120 40% 1 19.04.2027 -
Sipho Chaine Orlando Pirates Active 114 / 133 40% 6 16.04.2027 -
Morgan Whittaker Middlesbrough Active 135 / 122 40% 2 14.04.2027 -
Ollie Tanner Cardiff City Active 116 / 120 40% 1 11.04.2027 -
Max Bird Birmingham Active 135 / 122 40% 1 11.04.2027 -
João Virgínia Wolverhampton Active 123 / 121 40% 6 06.04.2027 -
Zack Steffen Spartak Moscow Active 137 / 124 40% 9 05.04.2027 -
Matti Peltola DC United Active 108 / 103 76% 1 05.04.2027 Approve
Gianmarco Vannucchi Benevento Active 122 / 127 40% 1 02.04.2027 -
Andrea Zaccagno Torres Active 114 / 117 40% 1 27.03.2027 -
Facundo Torres LOSC Lille Active 134 / 134 67% 1 14.02.2027 Approve
Stanislav Agkatsev Sunderland Active 132 / 133 66% 1 14.02.2027 Approve
Patson Daka Leicester City Active 123 / 120 40% 1 13.02.2027 -
Michael Zetterer Leeds United Active 142 / 129 40% 1 11.02.2027 -
Enzo Le Fée Sunderland Active 143 / 148 40% 1 09.02.2027 -
Kwadwo Baah Watford Active 132 / 134 40% 1 09.02.2027 -
Stanley Mills Oxford United Active 126 / 130 40% 1 09.02.2027 -
Adrien Truffert Bournemouth Active 145 / 153 40% 1 07.02.2027 -
Bertrand Traoré Sunderland Active 135 / 129 40% 1 07.02.2027 -
Jack Rudoni Coventry City Active 135 / 140 40% 1 05.02.2027 -
Giorgi Chakvetadze Watford Active 130 / 137 40% 1 04.02.2027 -
Rodrigo Gomes Wolverhampton Active 144 / 148 40% 1 03.02.2027 -
Ali Ahmed Norwich City Active 119 / 118 40% 1 02.02.2027 -
Riley McGree Middlesbrough Active 127 / 138 40% 1 02.02.2027 -
Tom Fellows Southampton Active 134 / 122 40% 1 01.02.2027 -
Callum Hudson-Odoi Nottingham Forest Active 146 / 157 40% 2 30.01.2027 -
Kenny Tete Fulham Active 145 / 134 40% 2 29.01.2027 -
Mandla Erasmus SuperSport United Active 115 / 137 40% 1 28.01.2027 -
Teden Mengi Luton Town Active 124 / 123 40% 1 28.01.2027 -
Callum Doyle Wrexham Active 127 / 137 40% 1 28.01.2027 -
Xaver Schlager Nottingham Forest Active 151 / 155 40% 1 25.01.2027 -
Liam Roberts Mansfield Town Active 117 / 101 40% 1 25.01.2027 -
Richard Ludha MFK Skalica Active 119 / 101 40% 2 18.01.2027 -
Petar Stanić Ludogorets Active 132 / 142 40% 2 16.01.2027 -
Marquinhos APOEL Active 137 / 141 40% 1 16.01.2027 -
Álex Centelles Levski Active 124 / 123 40% 2 14.01.2027 -
Evgeny Staver Rubin Active 120 / 109 40% 1 14.01.2027 -
Tomás Marchiori Vélez Active 128 / 125 40% 2 12.01.2027 -
Yves Bissouma Tottenham Active 149 / 150 40% 4 09.01.2027 -
Christian Krasnodar Active 143 / 115 40% 2 08.01.2027 -
Teboho Mabunda SuperSport United Active 111 / 107 40% 2 08.01.2027 -
Iván Arboleda Sarmiento Active 119 / 131 40% 2 05.01.2027 -
Hany Mukhtar Spezia Active 140 / 142 40% 3 05.01.2027 -
Samu Maccabi Netanya Active 115 / 123 40% 1 03.01.2027 -
Pedrinho Shakhtar Active 139 / 148 40% 2 31.12.2026 -
Bathusi Aubaas Mamelodi Sundowns Active 117 / 125 40% 1 26.12.2026 -
Martin Zlomislić Qarabag Active 118 / 103 40% 4 24.12.2026 -
Marc-Aurèle Caillard Debrecen Active 112 / 119 40% 2 24.12.2026 -
José Devecchi San Lorenzo Active 123 / 128 40% 1 18.12.2026 -
Ruben van Bommel Ferencvaros Active 130 / 132 40% 3 17.12.2026 -
Suleiman Camara Slovan Bratislava Active 115 / 118 40% 1 14.12.2026 -
Jordan Lotomba Bloemfontein Celtic Active 122 / 116 40% 6 13.12.2026 -
Hélio Varela Maccabi Tel Aviv Active 120 / 117 40% 1 13.12.2026 -
Victor Parada Spartak Moscow Active 128 / 132 40% 1 13.12.2026 -
Drake Callender Minnesota United FC Active 130 / 110 40% 5 07.12.2026 -
Nicolás Sumavil Platense Active 113 / 129 40% 2 07.12.2026 -
Femi Seriki Sheffield United Active 122 / 117 40% 1 07.12.2026 -
Marko Malenica NK Osijek Active 122 / 122 40% 1 06.12.2026 -
Conrad Wallem Austria Wien Active 134 / 136 40% 4 04.12.2026 -
Jack Currie Oxford United Active 117 / 128 40% 3 01.12.2026 -
Joaquín Gho Argentinos Juniors Active 122 / 123 40% 2 30.11.2026 -
Angus Gunn San Jose Earthquakes Active 119 / 110 40% 1 29.11.2026 -
Luis Ingolotti Atlético Tucumán Active 128 / 131 40% 1 25.11.2026 -
Emilio Di Fulvio Colegiales Active 115 / 114 40% 1 25.11.2026 -
Reda Khadra Qarabag Active 137 / 139 40% 4 22.11.2026 -
Gabriel Jesus Barcelona Active 155 / 158 40% 3 20.11.2026 -
Breel Embolo Atlanta United FC Active 136 / 138 40% 3 20.11.2026 -
Alexandr Koryakin Krasnodar Active 115 / 114 40% 1 13.11.2026 -
Elias Hadaya Sandefjord Active 115 / 111 40% 1 13.11.2026 -
Brais Méndez Columbus Crew Active 149 / 142 40% 6 12.11.2026 -
Sébastien Cibois Portimonense Active 115 / 103 40% 1 10.11.2026 -
Dominik Takáč Slovan Bratislava Active 128 / 115 40% 1 02.11.2026 -
Stanley Nwabali Astana Active 102 / 107 40% 1 02.11.2026 -
Maxim De Cuyper Brighton Active 139 / 129 40% 4 01.11.2026 -
Antony Portland Timbers Active 125 / 126 40% 1 27.10.2026 -
Khuliso Mudau Mamelodi Sundowns Active 123 / 121 40% 3 25.10.2026 -
Ryan Gauld Vancouver Whitecaps Active 138 / 137 40% 3 25.10.2026 -
Aljaž Ivačič DAC Dunajska Streda Active 117 / 113 40% 1 25.10.2026 -
Luka Gavran Toronto FC Active 118 / 107 40% 2 24.10.2026 -
Lucas Bruera Carabobo Active 118 / 125 40% 1 21.10.2026 -
Patrick Schulte Columbus Crew Active 129 / 133 40% 1 21.10.2026 -
Roman Celentano FC Cincinnati Active 123 / 115 40% 1 16.10.2026 -
João Gomes Aston Villa Active 144 / 149 40% 2 15.10.2026 -
Jonathan Bamba Chicago Fire Active 133 / 124 40% 1 10.10.2026 -
Antonio Galeano Remo Stars Active 118 / 114 40% 3 06.10.2026 -
Diego Luna Real Salt Lake Active 132 / 124 40% 1 05.10.2026 -
Andile Manyama SuperSport United Active 127 / 108 40% 1 05.10.2026 -
Allan Saint-Maximin Charlotte Football Club Active 138 / 130 40% 1 03.10.2026 -
Djordje Mihailović Toronto FC Active 133 / 137 40% 2 02.10.2026 -
David Da Costa Portland Timbers Active 133 / 140 40% 1 02.10.2026 -
Dayne St. Clair Inter Miami CF Active 125 / 118 40% 2 30.09.2026 -
John Pulskamp Sporting Kansas City Active 119 / 122 40% 1 29.09.2026 -
Alejandro Araque Deportivo Tachira Active 118 / 103 40% 1 28.09.2026 -
Metod Jurhar Voluntari Active 116 / 123 40% 1 25.09.2026 -
Andreas Leitner SV Ried Active 111 / 108 40% 1 25.09.2026 -
Cristopher Varela Deportivo La Guaira Active 107 / 119 40% 1 21.09.2026 -
Mateusz Kochalski Dynamo Kyiv Active 137 / 147 40% 1 21.09.2026 -
Joaquín Pereyra Minnesota United FC Active 131 / 128 40% 1 19.09.2026 -
Tomás Chancalay Minnesota United FC Active 130 / 121 40% 1 18.09.2026 -
Aubrey Modiba Mamelodi Sundowns Active 114 / 107 40% 2 17.09.2026 -
Telasco Segovia Inter Miami CF Active 125 / 143 40% 1 17.09.2026 -
Pavel Bucha FC Cincinnati Active 131 / 126 40% 1 17.09.2026 -
Marcus Ingvartsen San Diego Football Club Active 132 / 128 40% 1 16.09.2026 -
Griffin Yow New England Revolution Active 118 / 116 40% 1 16.09.2026 -
Elias Achouri San Diego Football Club Active 133 / 130 40% 1 13.09.2026 -
Rob Holding Colorado Rapids Active 118 / 122 40% 1 10.09.2026 -
Josh Sargent Toronto FC Active 124 / 128 40% 1 03.08.2026 -
Chuchu Ramírez Nacional Active 123 / 121 40% 1 03.08.2026 -